createdAt,value
2017-04-01T07:16:29.626Z,675
2017-04-01T07:17:30.338Z,705
2017-04-01T07:18:31.011Z,700
2017-04-01T07:19:31.801Z,675
2017-04-01T07:20:32.504Z,660
2017-04-01T07:21:34.828Z,660
2017-04-01T07:22:37.386Z,655
2017-04-01T07:23:38.074Z,630
2017-04-01T07:24:38.747Z,630
2017-04-01T07:25:40.110Z,620
2017-04-01T07:26:41.007Z,620
2017-04-01T07:27:41.742Z,625
2017-04-01T07:28:42.513Z,660
2017-04-01T07:29:43.296Z,655
2017-04-01T07:30:43.966Z,660
2017-04-01T07:31:44.663Z,625
2017-04-01T07:32:45.355Z,600
2017-04-01T07:33:46.889Z,645
2017-04-01T07:34:47.577Z,695
2017-04-01T07:35:48.951Z,715
2017-04-01T07:36:49.149Z,740
2017-04-01T07:37:49.837Z,760
2017-04-01T07:38:51.650Z,790
2017-04-01T07:39:52.466Z,805
2017-04-01T07:40:53.180Z,815
2017-04-01T07:41:53.870Z,810
2017-04-01T07:42:54.592Z,800
2017-04-01T07:43:55.727Z,820
2017-04-01T07:44:56.434Z,820
2017-04-01T07:45:57.239Z,810
2017-04-01T07:46:57.915Z,800
2017-04-01T07:47:58.698Z,790
2017-04-01T07:48:59.399Z,800
2017-04-01T07:50:00.143Z,800
2017-04-01T07:51:00.832Z,815
2017-04-01T07:52:01.544Z,835
2017-04-01T07:53:02.255Z,880
2017-04-01T07:54:02.996Z,905
2017-04-01T07:55:03.703Z,905
2017-04-01T07:56:04.404Z,860
2017-04-01T07:57:05.113Z,860
2017-04-01T07:58:05.793Z,870
2017-04-01T07:59:06.646Z,905
2017-04-01T08:00:07.298Z,910
2017-04-01T08:01:08.112Z,920
2017-04-01T08:02:08.855Z,920
2017-04-01T08:03:09.772Z,860
2017-04-01T08:04:10.671Z,790
2017-04-01T08:05:11.360Z,775
2017-04-01T08:06:12.043Z,765
2017-04-01T08:07:12.752Z,790
2017-04-01T08:08:13.536Z,815
2017-04-01T08:09:14.205Z,820
2017-04-01T08:10:14.900Z,810
2017-04-01T08:11:15.612Z,795
2017-04-01T08:12:16.317Z,755
2017-04-01T08:13:17.011Z,725
2017-04-01T08:14:17.792Z,735
2017-04-01T08:15:19.214Z,750
2017-04-01T08:16:20.007Z,770
2017-04-01T08:17:20.692Z,800
2017-04-01T08:18:21.479Z,835
2017-04-01T08:19:22.181Z,870
2017-04-01T08:20:22.869Z,935
2017-04-01T08:21:23.573Z,915
2017-04-01T08:22:24.381Z,850
2017-04-01T08:23:25.097Z,860
2017-04-01T08:24:25.775Z,890
2017-04-01T08:25:26.902Z,920
2017-04-01T08:26:27.602Z,945
2017-04-01T08:27:28.290Z,965
2017-04-01T08:28:28.998Z,940
2017-04-01T08:29:29.695Z,860
2017-04-01T08:30:30.417Z,825
2017-04-01T08:31:31.107Z,775
2017-04-01T08:32:32.036Z,740
2017-04-01T08:33:36.908Z,740
2017-04-01T08:34:36.112Z,735
2017-04-01T08:35:36.937Z,730
2017-04-01T08:36:37.923Z,730
2017-04-01T08:37:39.346Z,725
2017-04-01T08:38:39.832Z,740
2017-04-01T08:39:40.711Z,760
2017-04-01T08:40:41.360Z,775
2017-04-01T08:41:42.167Z,780
2017-04-01T08:42:42.887Z,785
2017-04-01T08:43:43.586Z,790
2017-04-01T08:44:44.936Z,785
2017-04-01T08:45:45.626Z,755
2017-04-01T08:46:46.385Z,730
2017-04-01T08:47:47.090Z,735
2017-04-01T08:48:47.793Z,730
2017-04-01T08:49:48.492Z,745
2017-04-01T08:50:49.642Z,750
2017-04-01T08:51:50.334Z,750
2017-04-01T08:52:51.476Z,730
2017-04-01T08:53:52.232Z,730
2017-04-01T08:54:52.918Z,730
2017-04-01T08:55:54.474Z,735
2017-04-01T08:56:55.178Z,750
2017-04-01T08:57:56.021Z,765
2017-04-01T08:58:57.588Z,760
2017-04-01T08:59:58.227Z,765
2017-04-01T09:00:58.947Z,785
2017-04-01T09:02:00.701Z,805
2017-04-01T09:03:01.723Z,840
2017-04-01T09:04:02.999Z,875
2017-04-01T09:05:04.328Z,920
2017-04-01T09:06:06.304Z,985
2017-04-01T09:07:06.196Z,1030
2017-04-01T09:08:06.892Z,1050
2017-04-01T09:09:07.863Z,1070
2017-04-01T09:10:10.070Z,1020
2017-04-01T09:11:11.928Z,1005
2017-04-01T09:12:12.608Z,955
2017-04-01T09:13:14.909Z,945
2017-04-01T09:14:15.703Z,925
2017-04-01T09:15:16.727Z,955
2017-04-01T09:16:18.357Z,975
2017-04-01T09:17:19.078Z,955
2017-04-01T09:18:19.800Z,935
2017-04-01T09:19:20.496Z,890
2017-04-01T09:20:21.207Z,920
2017-04-01T09:21:21.919Z,915
2017-04-01T09:22:22.623Z,880
2017-04-01T09:23:23.319Z,850
2017-04-01T09:24:24.013Z,835
2017-04-01T09:25:24.736Z,835
2017-04-01T09:26:25.430Z,830
2017-04-01T09:27:26.129Z,840
2017-04-01T09:28:26.822Z,875
2017-04-01T09:29:27.594Z,900
2017-04-01T09:30:28.290Z,925
2017-04-01T09:31:28.987Z,895
2017-04-01T09:32:29.669Z,860
2017-04-01T09:33:30.345Z,815
2017-04-01T09:34:31.080Z,760
2017-04-01T09:35:31.782Z,740
2017-04-01T09:36:32.474Z,735
2017-04-01T09:37:33.161Z,730
2017-04-01T09:38:34.671Z,730
2017-04-01T09:39:35.228Z,725
2017-04-01T09:40:36.116Z,720
2017-04-01T09:41:36.740Z,720
2017-04-01T09:42:37.447Z,730
2017-04-01T09:43:38.147Z,725
2017-04-01T09:44:38.844Z,720
2017-04-01T09:45:39.557Z,720
2017-04-01T09:46:40.242Z,730
2017-04-01T09:47:40.925Z,725
2017-04-01T09:48:41.637Z,720
2017-04-01T09:49:42.312Z,715
2017-04-01T09:50:43.002Z,715
2017-04-01T09:51:43.708Z,715
2017-04-01T09:52:44.426Z,720
2017-04-01T09:53:45.106Z,730
2017-04-01T09:54:45.815Z,735
2017-04-01T09:55:46.505Z,745
2017-04-01T09:56:47.221Z,750
2017-04-01T09:57:47.900Z,755
2017-04-01T09:58:48.590Z,755
2017-04-01T09:59:49.270Z,760
2017-04-01T10:00:49.962Z,755
2017-04-01T10:01:50.675Z,745
2017-04-01T10:02:51.360Z,735
2017-04-01T10:03:52.068Z,725
2017-04-01T10:04:52.746Z,720
2017-04-01T10:05:53.438Z,720
2017-04-01T10:06:54.140Z,715
2017-04-01T10:07:54.827Z,720
2017-04-01T10:08:55.539Z,715
2017-04-01T10:09:56.249Z,715
2017-04-01T10:10:56.952Z,715
2017-04-01T10:11:57.648Z,725
2017-04-01T10:12:58.341Z,740
2017-04-01T10:13:59.030Z,750
2017-04-01T10:14:59.749Z,750
2017-04-01T10:16:00.456Z,745
2017-04-01T10:17:01.153Z,745
2017-04-01T10:18:01.864Z,730
2017-04-01T10:19:02.565Z,725
2017-04-01T10:20:03.300Z,725
2017-04-01T10:21:03.984Z,730
2017-04-01T10:22:04.687Z,730
2017-04-01T10:23:05.387Z,725
2017-04-01T10:24:06.104Z,720
2017-04-01T10:25:06.787Z,710
2017-04-01T10:26:07.552Z,695
2017-04-01T10:27:08.241Z,680
2017-04-01T10:28:08.946Z,660
2017-04-01T10:29:09.640Z,655
2017-04-01T10:30:10.340Z,670
2017-04-01T10:31:11.026Z,685
2017-04-01T10:32:11.758Z,705
2017-04-01T10:33:12.472Z,725
2017-04-01T10:34:13.150Z,725
2017-04-01T10:35:13.845Z,715
2017-04-01T10:36:14.547Z,715
2017-04-01T10:37:15.229Z,700
2017-04-01T10:38:15.939Z,685
2017-04-01T10:39:16.650Z,680
2017-04-01T10:40:17.343Z,665
2017-04-01T10:41:18.039Z,645
2017-04-01T10:42:18.738Z,625
2017-04-01T10:43:19.435Z,625
2017-04-01T10:44:20.129Z,625
2017-04-01T10:45:20.840Z,610
2017-04-01T10:46:21.538Z,595
2017-04-01T10:47:22.240Z,585
2017-04-01T10:48:22.924Z,575
2017-04-01T10:49:23.656Z,575
2017-04-01T10:50:24.369Z,565
2017-04-01T10:51:25.055Z,555
2017-04-01T10:52:25.761Z,545
2017-04-01T10:53:26.479Z,550
2017-04-01T10:54:27.162Z,560
2017-04-01T10:55:27.887Z,560
2017-04-01T10:56:28.604Z,560
2017-04-01T10:57:29.319Z,550
2017-04-01T10:58:30.001Z,530
2017-04-01T10:59:30.720Z,525
2017-04-01T11:00:31.446Z,520
2017-04-01T11:01:32.139Z,515
2017-04-01T11:02:32.862Z,515
2017-04-01T11:03:33.570Z,520
2017-04-01T11:04:34.274Z,515
2017-04-01T11:05:34.965Z,505
2017-04-01T11:06:35.670Z,495
2017-04-01T11:07:36.395Z,485
2017-04-01T11:08:37.076Z,480
2017-04-01T11:09:37.781Z,465
2017-04-01T11:10:38.494Z,460
2017-04-01T11:11:39.203Z,460
2017-04-01T11:12:39.893Z,475
2017-04-01T11:13:40.563Z,480
2017-04-01T11:14:41.286Z,480
2017-04-01T11:15:42.015Z,475
2017-04-01T11:16:42.708Z,470
2017-04-01T11:17:43.395Z,465
2017-04-01T11:18:44.086Z,455
2017-04-01T11:19:44.909Z,445
2017-04-01T11:20:45.613Z,440
2017-04-01T11:21:46.301Z,425
2017-04-01T11:22:47.014Z,420
2017-04-01T11:23:47.702Z,420
2017-04-01T11:24:48.410Z,420
2017-04-01T11:25:49.127Z,415
2017-04-01T11:26:49.815Z,415
2017-04-01T11:27:50.517Z,415
2017-04-01T11:28:51.220Z,395
2017-04-01T11:29:51.944Z,380
2017-04-01T11:30:52.639Z,385
2017-04-01T11:31:53.359Z,390
2017-04-01T11:32:54.046Z,395
2017-04-01T11:33:54.776Z,390
2017-04-01T11:34:55.464Z,405
2017-04-01T11:35:56.157Z,410
2017-04-01T11:36:56.857Z,415
2017-04-01T11:37:57.572Z,425
2017-04-01T11:38:58.295Z,425
2017-04-01T11:39:59.012Z,430
2017-04-01T11:40:59.722Z,430
2017-04-01T11:42:00.445Z,430
2017-04-01T11:43:01.192Z,425
2017-04-01T11:44:01.886Z,425
2017-04-01T11:45:02.567Z,415
2017-04-01T11:46:03.313Z,405
2017-04-01T11:47:04.014Z,405
2017-04-01T11:48:04.712Z,395
2017-04-01T11:49:05.397Z,390
2017-04-01T11:50:06.094Z,385
2017-04-01T11:51:06.830Z,380
2017-04-01T11:52:07.515Z,380
2017-04-01T11:53:08.217Z,370
2017-04-01T11:54:08.895Z,365
2017-04-01T11:55:09.609Z,365
2017-04-01T11:56:10.302Z,365
2017-04-01T11:57:11.019Z,365
2017-04-01T11:58:11.738Z,365
2017-04-01T11:59:12.429Z,365
2017-04-01T12:00:13.121Z,355
2017-04-01T12:01:13.808Z,360
2017-04-01T12:02:14.495Z,360
2017-04-01T12:03:15.196Z,360
2017-04-01T12:04:15.876Z,365
2017-04-01T12:05:16.598Z,360
2017-04-01T12:06:17.322Z,355
2017-04-01T12:07:18.007Z,355
2017-04-01T12:08:18.693Z,360
2017-04-01T12:09:19.386Z,360
2017-04-01T12:10:20.127Z,360
2017-04-01T12:11:20.868Z,360
2017-04-01T12:12:21.559Z,360
2017-04-01T12:13:22.261Z,360
2017-04-01T12:14:22.955Z,350
2017-04-01T12:15:23.688Z,340
2017-04-01T12:16:24.404Z,335
2017-04-01T12:17:25.093Z,335
2017-04-01T12:18:25.799Z,325
2017-04-01T12:19:26.491Z,330
2017-04-01T12:20:27.190Z,335
2017-04-01T12:21:27.878Z,350
2017-04-01T12:22:28.562Z,365
2017-04-01T12:23:29.266Z,380
2017-04-01T12:24:29.967Z,390
2017-04-01T12:25:30.662Z,395
2017-04-01T12:26:31.394Z,395
2017-04-01T12:27:32.123Z,400
2017-04-01T12:28:32.841Z,395
2017-04-01T12:29:33.565Z,390
2017-04-01T12:30:34.252Z,395
2017-04-01T12:31:34.967Z,395
2017-04-01T12:32:35.669Z,390
2017-04-01T12:33:36.406Z,395
2017-04-01T12:34:37.135Z,395
2017-04-01T12:35:37.865Z,395
2017-04-01T12:36:38.548Z,400
2017-04-01T12:37:39.236Z,400
2017-04-01T12:38:39.936Z,405
2017-04-01T12:39:40.642Z,410
2017-04-01T12:40:41.333Z,415
2017-04-01T12:41:42.045Z,415
2017-04-01T12:42:42.723Z,415
2017-04-01T12:43:43.446Z,415
2017-04-01T12:44:44.134Z,410
2017-04-01T12:45:44.879Z,405
2017-04-01T12:46:45.600Z,400
2017-04-01T12:47:46.321Z,400
2017-04-01T12:48:47.004Z,395
2017-04-01T12:49:47.699Z,395
2017-04-01T12:50:48.399Z,395
2017-04-01T12:51:49.161Z,400
2017-04-01T12:52:49.859Z,410
2017-04-01T12:53:50.559Z,410
2017-04-01T12:54:51.259Z,420
2017-04-01T12:55:51.968Z,430
2017-04-01T12:56:52.649Z,435
2017-04-01T12:57:53.370Z,430
2017-04-01T12:58:54.092Z,435
2017-04-01T12:59:54.819Z,445
2017-04-01T13:00:55.537Z,455
2017-04-01T13:01:56.260Z,455
2017-04-01T13:02:56.946Z,455
2017-04-01T13:03:57.663Z,455
2017-04-01T13:04:58.386Z,460
2017-04-01T13:05:59.075Z,470
2017-04-01T13:06:59.809Z,470
2017-04-01T13:08:00.511Z,480
2017-04-01T13:09:01.239Z,485
2017-04-01T13:10:01.940Z,495
2017-04-01T13:11:02.618Z,500
2017-04-01T13:12:03.307Z,505
2017-04-01T13:13:04.022Z,510
2017-04-01T13:14:04.710Z,515
2017-04-01T13:15:05.410Z,515
2017-04-01T13:16:06.112Z,515
2017-04-01T13:17:06.808Z,515
2017-04-01T13:18:07.491Z,510
2017-04-01T13:19:08.178Z,510
2017-04-01T13:20:08.887Z,505
2017-04-01T13:21:09.598Z,495
2017-04-01T13:22:10.282Z,490
2017-04-01T13:23:10.992Z,490
2017-04-01T13:24:11.682Z,490
2017-04-01T13:25:12.371Z,485
2017-04-01T13:26:13.063Z,485
2017-04-01T13:27:13.751Z,480
2017-04-01T13:28:14.496Z,475
2017-04-01T13:29:15.191Z,475
2017-04-01T13:30:15.882Z,480
2017-04-01T13:31:16.617Z,480
2017-04-01T13:32:17.320Z,480
2017-04-01T13:33:18.055Z,480
2017-04-01T13:34:18.866Z,480
2017-04-01T13:35:19.572Z,475
2017-04-01T13:36:20.298Z,470
2017-04-01T13:37:21.005Z,465
2017-04-01T13:38:21.704Z,460
2017-04-01T13:39:22.407Z,455
2017-04-01T13:40:23.112Z,450
2017-04-01T13:41:23.807Z,455
2017-04-01T13:42:24.525Z,450
2017-04-01T13:43:25.237Z,450
2017-04-01T13:44:25.929Z,455
2017-04-01T13:45:26.647Z,455
2017-04-01T13:46:27.348Z,460
2017-04-01T13:47:28.049Z,460
2017-04-01T13:48:28.758Z,460
2017-04-01T13:49:29.478Z,460
2017-04-01T13:50:30.167Z,455
2017-04-01T13:51:30.880Z,450
2017-04-01T13:52:31.617Z,450
2017-04-01T13:53:32.321Z,455
2017-04-01T13:54:33.049Z,455
2017-04-01T13:55:33.758Z,455
2017-04-01T13:56:34.451Z,455
2017-04-01T13:57:35.143Z,450
2017-04-01T13:58:35.849Z,445
2017-04-01T13:59:36.566Z,445
2017-04-01T14:00:37.242Z,445
2017-04-01T14:01:37.965Z,445
2017-04-01T14:02:38.693Z,445
2017-04-01T14:03:39.388Z,440
2017-04-01T14:04:40.082Z,440
2017-04-01T14:05:40.785Z,440
2017-04-01T14:06:41.833Z,440
2017-04-01T14:07:43.059Z,440
2017-04-01T14:08:43.750Z,440
2017-04-01T14:09:44.474Z,435
2017-04-01T14:10:45.208Z,435
2017-04-01T14:11:45.902Z,440
2017-04-01T14:12:47.452Z,440
2017-04-01T14:13:48.139Z,445
2017-04-01T14:14:48.854Z,445
2017-04-01T14:15:49.558Z,445
2017-04-01T14:16:50.261Z,445
2017-04-01T14:17:50.959Z,450
2017-04-01T14:18:51.654Z,455
2017-04-01T14:19:52.381Z,455
2017-04-01T14:20:53.096Z,455
2017-04-01T14:21:55.319Z,455
2017-04-01T14:22:56.069Z,455
2017-04-01T14:23:56.756Z,450
2017-04-01T14:24:57.467Z,445
2017-04-01T14:25:58.169Z,440
2017-04-01T14:26:58.863Z,440
2017-04-01T14:27:59.553Z,440
2017-04-01T14:29:00.279Z,440
2017-04-01T14:30:00.984Z,440
2017-04-01T14:31:03.237Z,440
2017-04-01T14:32:03.940Z,440
2017-04-01T14:33:04.643Z,435
2017-04-01T14:34:05.364Z,440
2017-04-01T14:35:06.069Z,435
2017-04-01T14:36:06.780Z,435
2017-04-01T14:37:07.480Z,430
2017-04-01T14:38:08.182Z,430
2017-04-01T14:39:08.884Z,430
2017-04-01T14:40:09.711Z,425
2017-04-01T14:41:10.418Z,415
2017-04-01T14:42:11.129Z,405
2017-04-01T14:43:11.836Z,400
2017-04-01T14:44:13.480Z,400
2017-04-01T14:45:14.498Z,400
2017-04-01T14:46:15.247Z,395
2017-04-01T14:47:15.945Z,390
2017-04-01T14:48:16.639Z,390
2017-04-01T14:49:17.365Z,390
2017-04-01T14:50:18.043Z,380
2017-04-01T14:51:18.747Z,380
2017-04-01T14:52:19.435Z,370
2017-04-01T14:53:20.141Z,365
2017-04-01T14:54:20.832Z,360
2017-04-01T14:55:21.544Z,355
2017-04-01T14:56:22.248Z,355
2017-04-01T14:57:22.937Z,360
2017-04-01T14:58:23.640Z,370
2017-04-01T14:59:24.336Z,370
2017-04-01T15:00:25.107Z,365
2017-04-01T15:01:25.821Z,365
2017-04-01T15:02:26.529Z,360
2017-04-01T15:03:27.289Z,355
2017-04-01T15:04:28.262Z,345
2017-04-01T15:05:29.037Z,330
2017-04-01T15:06:29.749Z,325
2017-04-01T15:07:30.441Z,320
2017-04-01T15:08:31.142Z,315
2017-04-01T15:09:31.827Z,315
2017-04-01T15:10:32.545Z,315
2017-04-01T15:11:33.248Z,315
2017-04-01T15:12:33.954Z,320
2017-04-01T15:13:34.669Z,320
2017-04-01T15:14:35.408Z,325
2017-04-01T15:15:36.151Z,325
2017-04-01T15:16:36.846Z,330
2017-04-01T15:17:37.568Z,335
2017-04-01T15:18:38.286Z,340
2017-04-01T15:19:39.012Z,340
2017-04-01T15:20:39.678Z,345
2017-04-01T15:21:40.396Z,345
2017-04-01T15:22:41.088Z,345
2017-04-01T15:23:41.789Z,350
2017-04-01T15:24:42.483Z,355
2017-04-01T15:25:43.171Z,360
2017-04-01T15:26:43.861Z,360
2017-04-01T15:27:44.553Z,355
2017-04-01T15:28:45.256Z,355
2017-04-01T15:29:45.944Z,350
2017-04-01T15:30:46.651Z,340
2017-04-01T15:31:47.343Z,330
2017-04-01T15:32:48.032Z,315
2017-04-01T15:33:48.734Z,310
2017-04-01T15:34:49.428Z,305
2017-04-01T15:35:50.130Z,300
2017-04-01T15:36:50.821Z,290
2017-04-01T15:37:51.514Z,280
2017-04-01T15:38:52.219Z,275
2017-04-01T15:39:52.920Z,270
2017-04-01T15:40:53.660Z,255
2017-04-01T15:41:54.353Z,245
2017-04-01T15:42:55.053Z,235
2017-04-01T15:43:55.755Z,230
2017-04-01T15:44:56.453Z,230
2017-04-01T15:45:57.235Z,225
2017-04-01T15:46:58.386Z,225
2017-04-01T15:47:59.088Z,220
2017-04-01T15:48:59.805Z,220
2017-04-01T15:50:00.491Z,215
2017-04-01T15:51:01.171Z,210
2017-04-01T15:52:01.980Z,205
2017-04-01T15:53:02.676Z,205
2017-04-01T15:54:03.379Z,205
2017-04-01T15:55:04.067Z,205
2017-04-01T15:56:04.765Z,210
2017-04-01T15:57:05.452Z,210
2017-04-01T15:58:06.200Z,205
2017-04-01T15:59:06.927Z,200
2017-04-01T16:00:07.685Z,195
2017-04-01T16:01:08.390Z,200
2017-04-01T16:02:09.076Z,200
2017-04-01T16:03:09.780Z,200
2017-04-01T16:04:10.471Z,200
2017-04-01T16:05:11.187Z,200
2017-04-01T16:06:11.904Z,195
2017-04-01T16:07:12.596Z,195
2017-04-01T16:08:13.354Z,195
2017-04-01T16:09:14.039Z,195
2017-04-01T16:10:14.764Z,195
2017-04-01T16:11:15.467Z,190
2017-04-01T16:12:16.155Z,190
2017-04-01T16:13:16.870Z,185
2017-04-01T16:14:17.561Z,175
2017-04-01T16:15:18.276Z,170
2017-04-01T16:16:19.172Z,165
2017-04-01T16:17:19.859Z,160
2017-04-01T16:18:20.544Z,160
2017-04-01T16:19:21.268Z,160
2017-04-01T16:20:22.002Z,155
2017-04-01T16:21:22.731Z,155
2017-04-01T16:22:23.451Z,155
2017-04-01T16:23:24.267Z,155
2017-04-01T16:24:24.994Z,155
2017-04-01T16:25:25.695Z,150
2017-04-01T16:26:26.502Z,150
2017-04-01T16:27:27.304Z,150
2017-04-01T16:28:28.017Z,145
2017-04-01T16:29:28.706Z,140
2017-04-01T16:30:29.489Z,135
2017-04-01T16:31:30.173Z,130
2017-04-01T16:32:31.026Z,130
2017-04-01T16:33:31.715Z,120
2017-04-01T16:34:32.579Z,115
2017-04-01T16:35:33.302Z,110
2017-04-01T16:36:34.013Z,105
2017-04-01T16:37:34.734Z,100
2017-04-01T16:38:35.431Z,100
2017-04-01T16:39:36.112Z,100
2017-04-01T16:40:36.832Z,100
2017-04-01T16:41:37.513Z,100
2017-04-01T16:42:38.334Z,100
2017-04-01T16:43:39.027Z,100
2017-04-01T16:44:39.723Z,100
2017-04-01T16:45:40.652Z,100
2017-04-01T16:46:41.405Z,100
2017-04-01T16:47:42.131Z,105
2017-04-01T16:48:42.841Z,105
2017-04-01T16:49:43.671Z,105
2017-04-01T16:50:44.394Z,105
2017-04-01T16:51:45.085Z,100
2017-04-01T16:52:45.774Z,100
2017-04-01T16:53:46.458Z,100
2017-04-01T16:54:47.163Z,95
2017-04-01T16:55:47.876Z,95
2017-04-01T16:56:48.569Z,95
2017-04-01T16:57:49.274Z,90
2017-04-01T16:58:49.998Z,90
2017-04-01T16:59:50.743Z,85
2017-04-01T17:00:51.438Z,80
2017-04-01T17:01:52.151Z,85
2017-04-01T17:02:52.859Z,80
2017-04-01T17:03:53.575Z,80
2017-04-01T17:04:54.270Z,75
2017-04-01T17:05:54.959Z,75
2017-04-01T17:06:55.683Z,70
2017-04-01T17:07:56.408Z,70
2017-04-01T17:08:57.128Z,65
2017-04-01T17:09:57.828Z,65
2017-04-01T17:10:58.540Z,65
2017-04-01T17:11:59.226Z,65
2017-04-01T17:12:59.919Z,65
2017-04-01T17:14:00.632Z,65
2017-04-01T17:15:01.323Z,65
2017-04-01T17:16:02.020Z,60
2017-04-01T17:17:02.712Z,60
2017-04-01T17:18:03.427Z,60
2017-04-01T17:19:04.118Z,60
2017-04-01T17:20:04.806Z,60
2017-04-01T17:21:05.489Z,55
2017-04-01T17:22:06.194Z,55
2017-04-01T17:23:06.890Z,55
2017-04-01T17:24:07.596Z,55
2017-04-01T17:25:08.298Z,55
2017-04-01T17:26:08.998Z,50
2017-04-01T17:27:09.696Z,50
2017-04-01T17:28:10.395Z,45
2017-04-01T17:29:11.069Z,40
2017-04-01T17:30:11.770Z,40
2017-04-01T17:31:12.459Z,40
2017-04-01T17:32:13.196Z,35
2017-04-01T17:33:13.909Z,35
2017-04-01T17:34:14.594Z,30
2017-04-01T17:35:15.332Z,30
2017-04-01T17:36:16.025Z,30
2017-04-01T17:37:16.718Z,25
2017-04-01T17:38:17.402Z,25
2017-04-01T17:39:18.095Z,25
2017-04-01T17:40:18.785Z,20
2017-04-01T17:41:19.500Z,20
2017-04-01T17:42:20.209Z,20
2017-04-01T17:43:20.893Z,15
2017-04-01T17:44:21.579Z,15
2017-04-01T17:45:22.273Z,15
2017-04-01T17:46:22.971Z,10
2017-04-01T17:47:23.655Z,10
2017-04-01T17:48:24.351Z,10
2017-04-01T17:49:25.034Z,10
2017-04-01T17:50:25.720Z,5
2017-04-01T17:51:26.425Z,5
2017-04-01T17:52:27.114Z,5
2017-04-01T17:53:27.823Z,5
2017-04-01T17:54:28.520Z,0
2017-04-01T17:55:29.214Z,0
2017-04-01T17:56:29.909Z,0
2017-04-01T17:57:30.607Z,0
2017-04-01T17:58:31.303Z,0
2017-04-01T17:59:31.998Z,0
2017-04-01T18:00:32.671Z,0
2017-04-01T18:01:33.548Z,0
2017-04-01T18:02:34.350Z,0
2017-04-01T18:03:35.165Z,0
2017-04-01T18:04:35.950Z,0
2017-04-01T18:05:36.655Z,0
2017-04-01T18:06:37.349Z,0
2017-04-01T18:07:38.197Z,0
2017-04-01T18:08:39.039Z,0
2017-04-01T18:09:39.901Z,0
2017-04-01T18:10:40.723Z,0
2017-04-01T18:11:41.462Z,0
2017-04-01T18:12:42.169Z,0
2017-04-01T18:13:42.899Z,0
2017-04-01T18:14:43.715Z,0
2017-04-01T18:15:44.436Z,0
2017-04-01T18:16:45.122Z,0
2017-04-01T18:17:45.814Z,0
2017-04-01T18:18:46.515Z,0
2017-04-01T18:19:47.209Z,0
2017-04-01T18:20:47.920Z,0
2017-04-01T18:21:50.027Z,0
2017-04-01T18:22:50.736Z,0
2017-04-01T18:23:51.414Z,0
2017-04-01T18:24:52.109Z,0
2017-04-01T18:25:52.810Z,0
2017-04-01T18:26:53.504Z,0
2017-04-01T18:27:54.185Z,0
2017-04-01T18:28:55.978Z,0
2017-04-01T18:29:56.700Z,0
2017-04-01T18:30:57.411Z,0
2017-04-01T18:31:58.333Z,0
2017-04-01T18:32:59.045Z,0
2017-04-01T18:33:59.735Z,0
2017-04-01T18:35:00.562Z,0
2017-04-01T18:36:01.266Z,0
2017-04-01T18:37:02.721Z,0
2017-04-01T18:38:03.447Z,0
2017-04-01T18:39:04.152Z,0
2017-04-01T18:40:04.848Z,0
2017-04-01T18:41:05.702Z,0
2017-04-01T18:42:06.393Z,0
2017-04-01T18:43:07.141Z,0
2017-04-01T18:44:07.845Z,0
2017-04-01T18:45:08.539Z,0
2017-04-01T18:46:09.550Z,0
2017-04-01T18:47:10.235Z,0
2017-04-01T18:48:11.116Z,0
2017-04-01T18:49:11.797Z,0
2017-04-01T18:50:12.496Z,0
2017-04-01T18:51:13.196Z,0
2017-04-01T18:52:13.990Z,0
2017-04-01T18:53:14.687Z,0
2017-04-01T18:54:15.383Z,0
2017-04-01T18:55:16.109Z,0
2017-04-01T18:56:16.833Z,0
2017-04-01T18:57:17.536Z,0
2017-04-01T18:58:18.215Z,0
2017-04-01T18:59:19.110Z,0
2017-04-01T19:00:19.809Z,0
2017-04-01T19:01:20.488Z,0
2017-04-01T19:02:21.199Z,0
2017-04-01T19:03:21.879Z,0
2017-04-01T19:04:22.599Z,0
2017-04-01T19:05:23.322Z,0
2017-04-01T19:06:24.312Z,0
2017-04-01T19:07:25.498Z,0
2017-04-01T19:08:26.207Z,0
2017-04-01T19:09:26.892Z,0
2017-04-01T19:10:27.578Z,0
2017-04-01T19:11:28.284Z,0
2017-04-01T19:12:29.054Z,0
2017-04-01T19:13:30.079Z,0
2017-04-01T19:14:30.765Z,0
2017-04-01T19:15:31.441Z,0
2017-04-01T19:16:32.160Z,0
2017-04-01T19:17:32.865Z,0
2017-04-01T19:18:33.665Z,0
2017-04-01T19:19:34.359Z,0
2017-04-01T19:20:35.096Z,0
2017-04-01T19:21:35.777Z,0
2017-04-01T19:22:36.532Z,0
2017-04-01T19:23:37.223Z,0
2017-04-01T19:24:38.105Z,0
2017-04-01T19:25:38.777Z,0
2017-04-01T19:26:39.464Z,0
2017-04-01T19:27:40.161Z,0
2017-04-01T19:28:40.886Z,0
2017-04-01T19:29:41.580Z,0
2017-04-01T19:30:42.272Z,0
2017-04-01T19:31:42.966Z,0
2017-04-01T19:32:43.737Z,0
2017-04-01T19:33:44.432Z,0
2017-04-01T19:34:45.116Z,0
2017-04-01T19:35:45.814Z,0
2017-04-01T19:36:46.515Z,0
2017-04-01T19:37:47.235Z,0
2017-04-01T19:38:47.954Z,0
2017-04-01T19:39:48.652Z,0
2017-04-01T19:40:49.351Z,0
2017-04-01T19:41:50.028Z,0
2017-04-01T19:42:50.720Z,0
2017-04-01T19:43:51.441Z,0
2017-04-01T19:44:52.194Z,0
2017-04-01T19:45:52.876Z,0
2017-04-01T19:46:53.550Z,0
2017-04-01T19:47:54.243Z,0
2017-04-01T19:48:54.935Z,0
2017-04-01T19:49:55.660Z,0
2017-04-01T19:50:56.336Z,0
2017-04-01T19:51:57.028Z,0
2017-04-01T19:52:57.703Z,0
2017-04-01T19:53:58.394Z,0
2017-04-01T19:54:59.088Z,0
2017-04-01T19:55:59.793Z,0
2017-04-01T19:57:00.477Z,0
2017-04-01T19:58:01.188Z,0
2017-04-01T19:59:01.883Z,0
2017-04-01T20:00:02.577Z,0
2017-04-01T20:01:03.263Z,0
2017-04-01T20:02:03.951Z,0
2017-04-01T20:03:04.654Z,0
2017-04-01T20:04:05.334Z,0
2017-04-01T20:05:06.066Z,0
2017-04-01T20:06:06.763Z,0
2017-04-01T20:07:07.444Z,0
2017-04-01T20:08:08.156Z,0
2017-04-01T20:09:08.852Z,0
2017-04-01T20:10:09.958Z,0
2017-04-01T20:11:10.638Z,0
2017-04-01T20:12:11.326Z,0
2017-04-01T20:13:12.015Z,0
2017-04-01T20:14:12.704Z,0
2017-04-01T20:15:13.436Z,0
2017-04-01T20:16:14.199Z,0
2017-04-01T20:17:14.920Z,0
2017-04-01T20:18:15.596Z,0
2017-04-01T20:19:16.584Z,0
2017-04-01T20:20:17.286Z,0
2017-04-01T20:21:17.996Z,0
2017-04-01T20:22:18.838Z,0
2017-04-01T20:23:19.520Z,0
2017-04-01T20:24:20.213Z,0
2017-04-01T20:25:20.914Z,0
2017-04-01T20:26:21.593Z,0
2017-04-01T20:27:22.277Z,0
2017-04-01T20:28:22.984Z,0
2017-04-01T20:29:23.794Z,0
2017-04-01T20:30:24.487Z,0
2017-04-01T20:31:25.164Z,0
2017-04-01T20:32:25.844Z,0
2017-04-01T20:33:26.530Z,0
2017-04-01T20:34:27.233Z,0
2017-04-01T20:35:27.998Z,0
2017-04-01T20:36:28.717Z,0
2017-04-01T20:37:29.428Z,0
2017-04-01T20:38:30.112Z,0
2017-04-01T20:39:31.018Z,0
2017-04-01T20:40:31.696Z,0
2017-04-01T20:41:32.435Z,0
2017-04-01T20:42:33.128Z,0
2017-04-01T20:43:33.949Z,0
2017-04-01T20:44:34.815Z,0
2017-04-01T20:45:35.490Z,0
2017-04-01T20:46:36.240Z,0
2017-04-01T20:47:36.932Z,0
2017-04-01T20:48:37.639Z,0
2017-04-01T20:49:38.329Z,0
2017-04-01T20:50:39.009Z,0
2017-04-01T20:51:39.731Z,0
2017-04-01T20:52:40.441Z,0
2017-04-01T20:53:41.142Z,0
2017-04-01T20:54:41.830Z,0
2017-04-01T20:55:42.556Z,0
2017-04-01T20:56:43.260Z,0
2017-04-01T20:57:43.993Z,0
2017-04-01T20:58:45.428Z,0
2017-04-01T20:59:46.181Z,0
2017-04-01T21:00:47.007Z,0
2017-04-01T21:01:47.975Z,0
2017-04-01T21:02:48.750Z,0
2017-04-01T21:03:50.214Z,0
2017-04-01T21:04:52.075Z,0
2017-04-01T21:05:55.652Z,0
2017-04-01T21:06:56.380Z,0
2017-04-01T21:07:57.115Z,0
2017-04-01T21:08:57.834Z,0
2017-04-01T21:09:58.531Z,0
2017-04-01T21:10:59.215Z,0
2017-04-01T21:11:59.908Z,0
2017-04-01T21:13:00.604Z,0
2017-04-01T21:14:01.332Z,0
2017-04-01T21:15:02.044Z,0
2017-04-01T21:16:02.738Z,0
2017-04-01T21:17:03.452Z,0
2017-04-01T21:18:04.126Z,0
2017-04-01T21:19:04.849Z,0
2017-04-01T21:20:05.541Z,0
2017-04-01T21:21:06.230Z,0
2017-04-01T21:22:06.918Z,0
2017-04-01T21:23:07.594Z,0
2017-04-01T21:24:08.265Z,0
2017-04-01T21:25:08.949Z,0
2017-04-01T21:26:09.710Z,0
2017-04-01T21:27:10.444Z,0
2017-04-01T21:28:11.371Z,0
2017-04-01T21:29:12.087Z,0